Time;durP1;ratioP1;P1;durP2;ratioP2;P2;SDS_P1;SDS_P2;PMS_P1;PMS_P2;Temp;Humidity;BMP_temperature;BMP_pressure;BME280_temperature;BME280_humidity;BME280_pressure;Samples;Min_cycle;Max_cycle;Signal;HPM_P1;HPM_P2
2022/07/10 00:00:26;;;;;;;;;;;16.90;99.90;;;;;;8374876;28;20141;-76
2022/07/10 00:04:28;;;;;;;;;;;16.90;99.90;;;;;;8386085;28;19947;-76
2022/07/10 00:08:29;;;;;;;;;;;16.80;99.90;;;;;;8385907;28;19924;-75
2022/07/10 00:12:31;;;;;;;;;;;16.80;99.90;;;;;;8385472;28;19995;-76
2022/07/10 00:16:32;;;;;;;;;;;16.80;99.90;;;;;;8393583;28;19924;-76
2022/07/10 00:20:35;;;;;;;;;;;16.80;99.90;;;;;;8387627;28;19932;-76
2022/07/10 00:24:36;;;;;;;;;;;16.80;99.90;;;;;;8385879;28;19928;-76
2022/07/10 00:28:38;;;;;;;;;;;16.80;99.90;;;;;;8384794;28;20409;-76
2022/07/10 00:32:40;;;;;;;;;;;16.80;99.90;;;;;;8391354;28;19925;-76
2022/07/10 00:36:43;;;;;;;;;;;16.80;99.90;;;;;;8389234;28;19932;-75
2022/07/10 00:40:44;;;;;;;;;;;16.80;99.90;;;;;;8387214;28;20316;-76
2022/07/10 00:44:46;;;;;;;;;;;16.80;99.90;;;;;;8383464;28;19928;-76
2022/07/10 00:48:48;;;;;;;;;;;16.70;99.90;;;;;;8368013;28;19928;-76
2022/07/10 00:52:50;;;;;;;;;;;16.60;99.90;;;;;;8333961;28;1739770;-76
2022/07/10 00:56:52;;;;;;;;;;;16.50;99.90;;;;;;8387763;28;19931;-75
2022/07/10 01:00:53;;;;;;;;;;;16.50;99.90;;;;;;8396584;28;19928;-76
2022/07/10 01:04:56;;;;;;;;;;;16.40;99.90;;;;;;8392065;28;19925;-75
2022/07/10 01:08:58;;;;;;;;;;;16.40;99.90;;;;;;8396767;28;20316;-75
2022/07/10 01:13:01;;;;;;;;;;;16.30;99.90;;;;;;8369404;28;19932;-76
2022/07/10 01:17:04;;;;;;;;;;;16.30;99.90;;;;;;8391154;28;19925;-75
2022/07/10 01:21:05;;;;;;;;;;;16.30;99.90;;;;;;8380935;28;19951;-75
2022/07/10 01:25:07;;;;;;;;;;;16.20;99.90;;;;;;8389964;28;19947;-76
2022/07/10 01:29:09;;;;;;;;;;;16.20;99.90;;;;;;8400189;28;19924;-76
2022/07/10 01:33:11;;;;;;;;;;;16.20;99.90;;;;;;8399665;28;19924;-75
2022/07/10 01:37:13;;;;;;;;;;;16.30;99.90;;;;;;8369265;28;20385;-76
2022/07/10 01:41:14;;;;;;;;;;;16.30;99.90;;;;;;8400200;28;20033;-76
2022/07/10 01:45:16;;;;;;;;;;;16.30;99.90;;;;;;8397765;28;19962;-76
2022/07/10 01:49:18;;;;;;;;;;;16.40;99.90;;;;;;8392734;28;20379;-76
2022/07/10 01:53:20;;;;;;;;;;;16.40;99.90;;;;;;8393319;28;19935;-76
2022/07/10 01:57:21;;;;;;;;;;;16.40;99.90;;;;;;8394807;28;19932;-76
2022/07/10 02:01:23;;;;;;;;;;;16.40;99.90;;;;;;8388483;28;19932;-76
2022/07/10 02:05:24;;;;;;;;;;;16.40;99.90;;;;;;8393257;28;19954;-75
2022/07/10 02:09:26;;;;;;;;;;;16.40;99.90;;;;;;8388570;28;20268;-75
2022/07/10 02:13:28;;;;;;;;;;;16.40;99.90;;;;;;8384623;28;20375;-76
2022/07/10 02:17:29;;;;;;;;;;;16.40;99.90;;;;;;8385307;28;20287;-76
2022/07/10 02:21:31;;;;;;;;;;;16.40;99.90;;;;;;8388736;28;19924;-76
2022/07/10 02:25:33;;;;;;;;;;;16.40;99.90;;;;;;8390805;28;20295;-76
2022/07/10 02:29:35;;;;;;;;;;;16.40;99.90;;;;;;8394119;28;20256;-75
2022/07/10 02:33:37;;;;;;;;;;;16.40;99.90;;;;;;8394190;28;19928;-76
2022/07/10 02:37:38;;;;;;;;;;;16.40;99.90;;;;;;8389945;28;19925;-76
2022/07/10 02:41:40;;;;;;;;;;;16.40;99.90;;;;;;8385292;28;19932;-75
2022/07/10 02:45:42;;;;;;;;;;;16.30;99.90;;;;;;8375486;28;19934;-75
2022/07/10 02:49:47;;;;;;;;;;;16.30;99.90;;;;;;8395098;28;20683;-75
2022/07/10 02:53:49;;;;;;;;;;;16.30;99.90;;;;;;8389915;28;19936;-76
2022/07/10 02:57:51;;;;;;;;;;;16.30;99.90;;;;;;8389038;28;19924;-75
2022/07/10 03:01:52;;;;;;;;;;;16.20;99.90;;;;;;8385183;28;19925;-76
2022/07/10 03:05:54;;;;;;;;;;;16.30;99.90;;;;;;8397070;28;20070;-75
2022/07/10 03:09:56;;;;;;;;;;;16.30;99.90;;;;;;8387730;28;19925;-75
2022/07/10 03:13:57;;;;;;;;;;;16.20;99.90;;;;;;8383284;28;19929;-76
2022/07/10 03:17:59;;;;;;;;;;;16.20;99.90;;;;;;8377339;28;19932;-76
2022/07/10 03:22:01;;;;;;;;;;;16.20;99.90;;;;;;8389629;28;19924;-76
2022/07/10 03:26:02;;;;;;;;;;;16.20;99.90;;;;;;8393291;28;19931;-75
2022/07/10 03:30:05;;;;;;;;;;;16.20;99.90;;;;;;8396094;28;19947;-75
2022/07/10 03:34:06;;;;;;;;;;;16.20;99.90;;;;;;8387839;28;20050;-76
2022/07/10 03:38:08;;;;;;;;;;;16.20;99.90;;;;;;8387121;28;19928;-76
2022/07/10 03:42:10;;;;;;;;;;;16.20;99.90;;;;;;8387118;28;19924;-75
2022/07/10 03:46:11;;;;;;;;;;;16.20;99.90;;;;;;8396512;28;19968;-76
2022/07/10 03:50:13;;;;;;;;;;;16.20;99.90;;;;;;8406868;28;19936;-75
2022/07/10 03:54:15;;;;;;;;;;;16.20;99.90;;;;;;8375045;28;19931;-76
2022/07/10 03:58:16;;;;;;;;;;;16.20;99.90;;;;;;8384191;28;19925;-76
2022/07/10 04:02:18;;;;;;;;;;;16.20;99.90;;;;;;8385381;28;19951;-75
2022/07/10 04:06:20;;;;;;;;;;;16.10;99.90;;;;;;8379377;28;19932;-75
2022/07/10 04:10:21;;;;;;;;;;;16.20;99.90;;;;;;8380922;28;19928;-76
2022/07/10 04:14:23;;;;;;;;;;;16.10;99.90;;;;;;8384898;28;19925;-75
2022/07/10 04:18:25;;;;;;;;;;;16.10;99.90;;;;;;8376301;28;20004;-75
2022/07/10 04:22:27;;;;;;;;;;;16.10;99.90;;;;;;8390960;28;20058;-76
2022/07/10 04:26:29;;;;;;;;;;;16.10;99.90;;;;;;8400954;28;20031;-76
2022/07/10 04:30:30;;;;;;;;;;;16.10;99.90;;;;;;8371591;28;19928;-76
2022/07/10 04:34:32;;;;;;;;;;;16.20;99.90;;;;;;8392363;28;19936;-76
2022/07/10 04:38:34;;;;;;;;;;;16.10;99.90;;;;;;8382620;28;20403;-75
2022/07/10 04:42:35;;;;;;;;;;;16.20;99.90;;;;;;8380014;28;20430;-75
2022/07/10 04:46:37;;;;;;;;;;;16.30;99.90;;;;;;8392258;28;19924;-75
2022/07/10 04:50:39;;;;;;;;;;;16.30;99.90;;;;;;8398034;28;19967;-75
2022/07/10 04:54:40;;;;;;;;;;;16.40;99.90;;;;;;8389858;28;19924;-75
2022/07/10 04:58:42;;;;;;;;;;;16.50;99.90;;;;;;8388642;28;20379;-76
2022/07/10 05:02:47;;;;;;;;;;;16.60;99.90;;;;;;8370992;28;19924;-75
2022/07/10 05:06:49;;;;;;;;;;;16.70;99.90;;;;;;8394476;28;19936;-75
2022/07/10 05:10:51;;;;;;;;;;;16.80;99.90;;;;;;8384230;28;19931;-76
2022/07/10 05:14:52;;;;;;;;;;;16.80;99.90;;;;;;8389929;28;19924;-76
2022/07/10 05:18:54;;;;;;;;;;;16.70;99.90;;;;;;8390462;28;19931;-75
2022/07/10 05:22:56;;;;;;;;;;;16.70;99.90;;;;;;8383924;28;19925;-76
2022/07/10 05:26:57;;;;;;;;;;;16.70;99.90;;;;;;8391133;28;19928;-75
2022/07/10 05:30:59;;;;;;;;;;;16.70;99.90;;;;;;8356704;28;19932;-75
2022/07/10 05:35:01;;;;;;;;;;;16.60;99.90;;;;;;8380056;28;19924;-75
2022/07/10 05:39:02;;;;;;;;;;;16.60;99.90;;;;;;8369040;28;20387;-75
2022/07/10 05:43:04;;;;;;;;;;;16.60;99.90;;;;;;8384192;28;20383;-76
2022/07/10 05:47:06;;;;;;;;;;;16.60;99.90;;;;;;8386771;28;19928;-75
2022/07/10 05:51:08;;;;;;;;;;;16.60;99.90;;;;;;8386799;28;20016;-75
2022/07/10 05:55:30;;;;;;;;;;;16.60;99.90;;;;;;8375177;28;20427;-75
2022/07/10 05:59:34;;;;;;;;;;;16.60;99.90;;;;;;8357280;28;19935;-75
2022/07/10 06:03:36;;;;;;;;;;;16.60;99.90;;;;;;8367830;28;19928;-76
2022/07/10 06:07:38;;;;;;;;;;;16.60;99.90;;;;;;8369982;28;19925;-76
2022/07/10 06:11:41;;;;;;;;;;;16.60;99.90;;;;;;8360298;28;19999;-76
2022/07/10 06:15:43;;;;;;;;;;;16.60;99.90;;;;;;8370103;28;19936;-75
2022/07/10 06:19:44;;;;;;;;;;;16.60;99.90;;;;;;8362674;28;20378;-75
2022/07/10 06:23:46;;;;;;;;;;;16.60;99.90;;;;;;8372168;28;19928;-75
2022/07/10 06:27:48;;;;;;;;;;;16.60;99.90;;;;;;8375461;28;19925;-76
2022/07/10 06:31:49;;;;;;;;;;;16.60;99.90;;;;;;8362143;28;19974;-75
2022/07/10 06:35:51;;;;;;;;;;;16.70;99.90;;;;;;8366280;28;19973;-76
2022/07/10 06:39:53;;;;;;;;;;;16.70;99.90;;;;;;8381035;28;20283;-76
2022/07/10 06:43:54;;;;;;;;;;;16.70;99.90;;;;;;8367090;28;19925;-76
2022/07/10 06:47:57;;;;;;;;;;;16.80;99.90;;;;;;8363411;28;19925;-76
2022/07/10 06:51:59;;;;;;;;;;;16.80;99.90;;;;;;8383071;28;19925;-76
2022/07/10 06:56:00;;;;;;;;;;;16.90;99.90;;;;;;8363724;28;19936;-76
2022/07/10 07:00:03;;;;;;;;;;;17.00;99.90;;;;;;8359984;28;20390;-76
2022/07/10 07:04:04;;;;;;;;;;;17.00;99.90;;;;;;8374253;28;19933;-76
2022/07/10 07:08:06;;;;;;;;;;;17.10;99.90;;;;;;8364346;28;19932;-76
2022/07/10 07:12:08;;;;;;;;;;;17.10;99.90;;;;;;8361989;28;19925;-76
2022/07/10 07:16:13;;;;;;;;;;;17.10;99.90;;;;;;8358036;28;19944;-76
2022/07/10 07:24:35;;;;;;;;;;;17.10;99.90;;;;;;8360556;28;19973;-76
2022/07/10 07:28:37;;;;;;;;;;;17.10;99.90;;;;;;8358896;28;19967;-76
2022/07/10 07:32:39;;;;;;;;;;;17.20;99.90;;;;;;8366318;28;19985;-76
2022/07/10 07:36:41;;;;;;;;;;;17.20;99.90;;;;;;8359337;28;19928;-75
2022/07/10 07:40:42;;;;;;;;;;;17.30;99.90;;;;;;8355746;28;19932;-76
2022/07/10 07:44:44;;;;;;;;;;;17.40;99.90;;;;;;8359752;28;20727;-76
2022/07/10 07:48:45;;;;;;;;;;;17.40;99.90;;;;;;8361008;28;20634;-75
2022/07/10 07:52:47;;;;;;;;;;;17.40;99.90;;;;;;8376214;28;19939;-76
2022/07/10 07:56:49;;;;;;;;;;;17.40;99.90;;;;;;8376642;28;19936;-76
2022/07/10 08:00:51;;;;;;;;;;;17.40;99.90;;;;;;8374653;28;20588;-76
2022/07/10 08:04:52;;;;;;;;;;;17.40;99.90;;;;;;8371157;28;19974;-76
2022/07/10 08:08:54;;;;;;;;;;;17.30;99.90;;;;;;8374855;28;19924;-76
2022/07/10 08:12:56;;;;;;;;;;;17.30;99.90;;;;;;8375583;28;19932;-76
2022/07/10 08:16:57;;;;;;;;;;;17.30;99.90;;;;;;8374716;28;19932;-76
2022/07/10 08:20:59;;;;;;;;;;;17.30;99.90;;;;;;8375767;28;19940;-76
2022/07/10 08:25:01;;;;;;;;;;;17.30;99.90;;;;;;8374511;28;19936;-76
2022/07/10 08:29:02;;;;;;;;;;;17.30;99.90;;;;;;8377376;28;19994;-76
2022/07/10 08:33:04;;;;;;;;;;;17.30;99.90;;;;;;8371567;28;19936;-77
2022/07/10 08:37:06;;;;;;;;;;;17.40;99.90;;;;;;8365403;28;19936;-76
2022/07/10 08:41:10;;;;;;;;;;;17.40;99.90;;;;;;8371681;28;19935;-77
2022/07/10 08:45:12;;;;;;;;;;;17.40;99.90;;;;;;8368419;28;19933;-76
2022/07/10 08:49:16;;;;;;;;;;;17.50;99.90;;;;;;8367965;28;19939;-76
2022/07/10 08:53:28;;;;;;;;;;;17.50;99.90;;;;;;8342878;28;19928;-75
2022/07/10 08:57:31;;;;;;;;;;;17.60;99.90;;;;;;8382230;28;19933;-76
2022/07/10 09:01:33;;;;;;;;;;;17.70;99.90;;;;;;8362391;28;19974;-76
2022/07/10 09:05:35;;;;;;;;;;;17.90;99.90;;;;;;8356433;28;20015;-76
2022/07/10 09:09:54;;;;;;;;;;;18.00;99.90;;;;;;8378996;28;19933;-75
2022/07/10 09:14:04;;;;;;;;;;;18.10;99.90;;;;;;8365367;28;20183;-75
2022/07/10 09:18:07;;;;;;;;;;;18.10;99.90;;;;;;8369010;28;19928;-76
2022/07/10 09:22:09;;;;;;;;;;;18.10;99.90;;;;;;8368198;28;19929;-76
2022/07/10 09:26:11;;;;;;;;;;;18.20;99.90;;;;;;8367697;28;20276;-76
2022/07/10 09:30:30;;;;;;;;;;;18.30;99.90;;;;;;8369106;28;19933;-76
2022/07/10 09:34:36;;;;;;;;;;;18.20;99.90;;;;;;8369660;28;19924;-76
2022/07/10 09:38:43;;;;;;;;;;;18.30;99.90;;;;;;8377850;28;20399;-76
2022/07/10 09:42:47;;;;;;;;;;;18.50;99.90;;;;;;8364018;28;19964;-77
2022/07/10 09:46:49;;;;;;;;;;;18.50;99.90;;;;;;8380179;28;19929;-76
2022/07/10 09:50:51;;;;;;;;;;;18.60;99.90;;;;;;8363750;28;19928;-76
2022/07/10 09:54:53;;;;;;;;;;;18.60;99.90;;;;;;8362583;28;19935;-76
2022/07/10 09:58:57;;;;;;;;;;;18.70;99.90;;;;;;8364844;28;19928;-76
2022/07/10 10:02:59;;;;;;;;;;;18.80;99.90;;;;;;8363685;28;19936;-76
2022/07/10 10:07:02;;;;;;;;;;;18.80;99.90;;;;;;8361605;28;19929;-76
2022/07/10 10:11:04;;;;;;;;;;;18.70;99.90;;;;;;8359437;28;19932;-77
2022/07/10 10:15:07;;;;;;;;;;;18.80;99.90;;;;;;8361164;28;20292;-76
2022/07/10 10:23:41;;;;;;;;;;;18.80;99.90;;;;;;8327339;28;19939;-77
2022/07/10 10:27:43;;;;;;;;;;;18.80;99.90;;;;;;8365005;28;20252;-76
2022/07/10 10:31:45;;;;;;;;;;;18.90;99.90;;;;;;8362957;28;19929;-76
2022/07/10 10:35:47;;;;;;;;;;;18.90;99.90;;;;;;8356618;28;19924;-75
2022/07/10 10:39:55;;;;;;;;;;;19.00;99.90;;;;;;8357967;28;19924;-76
2022/07/10 10:44:16;;;;;;;;;;;19.00;99.90;;;;;;8363700;28;19928;-76
2022/07/10 10:48:20;;;;;;;;;;;19.10;99.90;;;;;;8361529;28;20372;-77
2022/07/10 10:52:59;;;;;;;;;;;19.10;99.90;;;;;;8365415;28;19932;-76
2022/07/10 10:57:14;;;;;;;;;;;19.20;99.90;;;;;;8362691;28;19939;-76
2022/07/10 11:01:22;;;;;;;;;;;19.20;99.90;;;;;;8356884;28;20009;-77
2022/07/10 11:05:34;;;;;;;;;;;19.20;99.90;;;;;;8357372;28;19931;-76
2022/07/10 11:09:36;;;;;;;;;;;19.20;99.90;;;;;;8372488;28;19929;-76
2022/07/10 11:13:38;;;;;;;;;;;19.20;99.90;;;;;;8362803;28;19929;-76
2022/07/10 11:17:41;;;;;;;;;;;19.10;99.90;;;;;;8364775;28;20017;-77
2022/07/10 11:21:46;;;;;;;;;;;19.10;99.90;;;;;;8360885;28;19939;-76
2022/07/10 11:25:50;;;;;;;;;;;19.20;99.90;;;;;;8361207;28;19925;-76
2022/07/10 11:29:59;;;;;;;;;;;19.20;99.90;;;;;;8365245;28;19928;-76
2022/07/10 11:34:00;;;;;;;;;;;19.30;99.90;;;;;;8343673;28;20429;-76
2022/07/10 11:38:02;;;;;;;;;;;19.40;99.90;;;;;;8367302;28;19932;-76
2022/07/10 11:42:04;;;;;;;;;;;19.40;99.90;;;;;;8360252;28;20368;-76
2022/07/10 11:46:07;;;;;;;;;;;19.50;99.90;;;;;;8377869;28;20291;-76
2022/07/10 11:50:09;;;;;;;;;;;19.50;99.90;;;;;;8356284;28;19939;-76
2022/07/10 11:54:12;;;;;;;;;;;19.50;99.90;;;;;;8382165;28;20411;-76
2022/07/10 11:58:14;;;;;;;;;;;19.50;99.90;;;;;;8360187;28;20059;-76
2022/07/10 12:02:21;;;;;;;;;;;19.60;99.90;;;;;;8357654;28;20299;-75
2022/07/10 12:06:24;;;;;;;;;;;19.60;99.90;;;;;;8362073;28;20434;-76
2022/07/10 12:10:26;;;;;;;;;;;19.60;99.90;;;;;;8358533;28;19960;-76
2022/07/10 12:14:30;;;;;;;;;;;19.70;99.90;;;;;;8361416;28;19990;-77
2022/07/10 12:18:33;;;;;;;;;;;19.80;99.90;;;;;;8363606;28;19936;-77
2022/07/10 12:22:35;;;;;;;;;;;20.00;99.90;;;;;;8362154;28;20024;-77
2022/07/10 12:26:37;;;;;;;;;;;20.10;99.90;;;;;;8369011;28;19951;-77
2022/07/10 12:30:40;;;;;;;;;;;20.20;99.90;;;;;;8356104;28;19929;-76
2022/07/10 12:34:43;;;;;;;;;;;20.30;99.90;;;;;;8364032;28;19925;-76
2022/07/10 12:38:52;;;;;;;;;;;20.30;99.90;;;;;;8369684;28;19939;-77
2022/07/10 12:43:00;;;;;;;;;;;20.30;99.90;;;;;;8364761;28;19928;-77
2022/07/10 12:47:14;;;;;;;;;;;20.30;99.90;;;;;;8370153;28;19929;-77
2022/07/10 12:51:22;;;;;;;;;;;20.40;99.90;;;;;;8366448;28;19950;-77
2022/07/10 12:55:25;;;;;;;;;;;20.40;99.90;;;;;;8367053;28;19920;-77
2022/07/10 12:59:29;;;;;;;;;;;20.50;99.90;;;;;;8380078;28;19924;-76
2022/07/10 13:03:31;;;;;;;;;;;20.40;99.90;;;;;;8360733;28;19928;-77
2022/07/10 13:07:34;;;;;;;;;;;20.50;99.90;;;;;;8363802;28;20308;-76
2022/07/10 13:11:36;;;;;;;;;;;20.50;99.90;;;;;;8365183;28;20340;-77
2022/07/10 13:15:46;;;;;;;;;;;20.50;99.90;;;;;;8365379;28;19964;-77
2022/07/10 13:19:47;;;;;;;;;;;20.60;99.90;;;;;;8370686;28;19920;-78
2022/07/10 13:23:50;;;;;;;;;;;20.60;99.90;;;;;;8366625;28;19940;-77
2022/07/10 13:27:52;;;;;;;;;;;20.70;99.90;;;;;;8364523;28;19924;-77
2022/07/10 13:31:53;;;;;;;;;;;20.80;99.90;;;;;;8361401;28;19921;-77
2022/07/10 13:35:58;;;;;;;;;;;20.80;99.90;;;;;;8364237;28;19978;-76
2022/07/10 13:40:00;;;;;;;;;;;20.80;99.90;;;;;;8367671;28;19928;-76
2022/07/10 13:44:02;;;;;;;;;;;20.90;99.90;;;;;;8359419;28;20401;-76
2022/07/10 13:48:04;;;;;;;;;;;20.90;99.90;;;;;;8363271;28;19921;-76
2022/07/10 13:52:05;;;;;;;;;;;20.90;99.90;;;;;;8361488;28;19921;-76
2022/07/10 13:56:07;;;;;;;;;;;20.90;99.90;;;;;;8359094;28;19920;-76
2022/07/10 14:00:15;;;;;;;;;;;20.90;99.90;;;;;;8358409;28;19942;-76
2022/07/10 14:04:16;;;;;;;;;;;20.90;99.90;;;;;;8361116;28;19920;-76
2022/07/10 14:08:18;;;;;;;;;;;21.00;99.90;;;;;;8360888;28;19924;-77
2022/07/10 14:12:19;;;;;;;;;;;21.00;99.90;;;;;;8358933;28;19973;-76
2022/07/10 14:16:21;;;;;;;;;;;21.00;99.90;;;;;;8366755;28;20034;-76
2022/07/10 14:20:23;;;;;;;;;;;21.00;99.90;;;;;;8366532;28;19939;-76
2022/07/10 14:24:25;;;;;;;;;;;21.20;99.90;;;;;;8373635;28;19932;-77
2022/07/10 14:28:26;;;;;;;;;;;21.20;99.90;;;;;;8366489;28;19927;-76
2022/07/10 14:32:28;;;;;;;;;;;21.20;99.90;;;;;;8360711;28;20042;-76
2022/07/10 14:36:30;;;;;;;;;;;21.20;99.90;;;;;;8383307;28;19920;-76
2022/07/10 14:40:31;;;;;;;;;;;21.30;99.90;;;;;;8362893;28;19959;-76
2022/07/10 14:44:33;;;;;;;;;;;21.20;99.90;;;;;;8365525;28;19935;-77
2022/07/10 14:48:35;;;;;;;;;;;21.20;99.90;;;;;;8359181;28;19927;-75
2022/07/10 14:52:37;;;;;;;;;;;21.20;99.90;;;;;;8374373;28;20023;-76
2022/07/10 14:56:39;;;;;;;;;;;21.20;99.90;;;;;;8358358;28;19925;-76
2022/07/10 15:00:41;;;;;;;;;;;21.20;99.90;;;;;;8367333;28;19928;-76
2022/07/10 15:04:42;;;;;;;;;;;21.20;99.90;;;;;;8357215;28;20273;-76
2022/07/10 15:08:44;;;;;;;;;;;21.30;99.90;;;;;;8359274;28;19939;-76
2022/07/10 15:12:46;;;;;;;;;;;21.40;99.90;;;;;;8375326;28;20402;-76
2022/07/10 15:16:48;;;;;;;;;;;21.40;99.90;;;;;;8363157;28;19944;-75
2022/07/10 15:20:49;;;;;;;;;;;21.40;99.90;;;;;;8357346;28;19947;-77
2022/07/10 15:24:51;;;;;;;;;;;21.30;99.90;;;;;;8360771;28;19924;-76
2022/07/10 15:28:55;;;;;;;;;;;21.30;99.90;;;;;;8341931;28;19939;-76
2022/07/10 15:32:56;;;;;;;;;;;21.40;99.90;;;;;;8357266;28;19924;-75
2022/07/10 15:36:58;;;;;;;;;;;21.40;99.90;;;;;;8361616;28;20656;-76
2022/07/10 15:41:00;;;;;;;;;;;21.40;99.90;;;;;;8356999;28;19933;-76
2022/07/10 15:45:01;;;;;;;;;;;21.40;99.90;;;;;;8355701;28;19932;-77
2022/07/10 15:49:05;;;;;;;;;;;21.40;99.90;;;;;;8337308;28;19932;-76
2022/07/10 15:53:06;;;;;;;;;;;21.40;99.90;;;;;;8358706;28;20380;-76
2022/07/10 15:57:08;;;;;;;;;;;21.50;99.90;;;;;;8330031;28;19921;-76
2022/07/10 16:01:11;;;;;;;;;;;21.60;99.90;;;;;;8324544;28;19925;-76
2022/07/10 16:05:12;;;;;;;;;;;21.70;99.90;;;;;;8331530;28;20265;-76
2022/07/10 16:09:14;;;;;;;;;;;21.70;99.90;;;;;;8323036;28;20039;-76
2022/07/10 16:13:17;;;;;;;;;;;21.70;99.90;;;;;;8329623;28;19952;-75
2022/07/10 16:17:18;;;;;;;;;;;21.60;99.90;;;;;;8335468;28;19929;-76
2022/07/10 16:21:21;;;;;;;;;;;21.50;99.90;;;;;;8338491;28;19925;-76
2022/07/10 16:29:43;;;;;;;;;;;21.40;99.90;;;;;;8321788;28;19925;-76
2022/07/10 16:33:47;;;;;;;;;;;21.40;99.90;;;;;;8331655;28;19929;-76
2022/07/10 16:37:49;;;;;;;;;;;21.30;99.90;;;;;;8327692;28;19936;-76
2022/07/10 16:41:53;;;;;;;;;;;21.30;99.90;;;;;;8328023;28;20585;-76
2022/07/10 16:45:54;;;;;;;;;;;21.20;99.90;;;;;;8331111;28;20632;-76
2022/07/10 16:49:58;;;;;;;;;;;21.10;99.90;;;;;;8340903;28;19921;-75
2022/07/10 16:54:00;;;;;;;;;;;21.00;99.90;;;;;;8376172;28;19928;-76
2022/07/10 16:58:19;;;;;;;;;;;21.00;99.90;;;;;;8362709;28;19924;-76
2022/07/10 17:02:21;;;;;;;;;;;21.00;99.90;;;;;;8361282;28;19925;-76
2022/07/10 17:06:22;;;;;;;;;;;21.00;99.90;;;;;;8378550;28;19921;-76
2022/07/10 17:10:24;;;;;;;;;;;21.00;99.90;;;;;;8372837;28;19931;-75
2022/07/10 17:14:26;;;;;;;;;;;21.00;99.90;;;;;;8356173;28;20300;-75
2022/07/10 17:18:28;;;;;;;;;;;21.10;99.90;;;;;;8363891;28;20236;-75
2022/07/10 17:22:29;;;;;;;;;;;21.20;99.90;;;;;;8360711;28;19921;-76
2022/07/10 17:26:31;;;;;;;;;;;21.20;99.90;;;;;;8352933;28;19920;-76
2022/07/10 17:30:33;;;;;;;;;;;21.10;99.90;;;;;;8354745;28;19921;-76
2022/07/10 17:34:35;;;;;;;;;;;21.20;99.90;;;;;;8363500;28;19924;-76
2022/07/10 17:38:36;;;;;;;;;;;21.30;99.90;;;;;;8357740;28;19920;-76
2022/07/10 17:42:40;;;;;;;;;;;21.40;99.90;;;;;;8354532;28;19928;-76
2022/07/10 17:46:42;;;;;;;;;;;21.50;99.90;;;;;;8359304;28;19925;-76
2022/07/10 17:50:44;;;;;;;;;;;21.50;99.90;;;;;;8363060;28;19978;-76
2022/07/10 17:54:45;;;;;;;;;;;21.40;99.90;;;;;;8356542;28;19927;-75
2022/07/10 17:58:48;;;;;;;;;;;21.30;99.90;;;;;;8358167;28;19924;-76
2022/07/10 18:02:49;;;;;;;;;;;21.30;99.90;;;;;;8360291;28;19933;-76
2022/07/10 18:06:51;;;;;;;;;;;21.30;99.90;;;;;;8362118;28;19925;-76
2022/07/10 18:10:53;;;;;;;;;;;21.30;99.90;;;;;;8364362;28;20004;-75
2022/07/10 18:14:55;;;;;;;;;;;21.30;99.90;;;;;;8360348;28;19929;-76
2022/07/10 18:18:56;;;;;;;;;;;21.30;99.90;;;;;;8363012;28;19927;-76
2022/07/10 18:22:58;;;;;;;;;;;21.30;99.90;;;;;;8364615;28;19928;-75
2022/07/10 18:27:01;;;;;;;;;;;21.20;99.90;;;;;;8361090;28;20296;-75
2022/07/10 18:31:03;;;;;;;;;;;21.30;99.90;;;;;;8359620;28;19920;-75
2022/07/10 18:35:05;;;;;;;;;;;21.30;99.90;;;;;;8363018;28;19928;-76
2022/07/10 18:39:07;;;;;;;;;;;21.30;99.90;;;;;;8360647;28;20443;-76
2022/07/10 18:43:15;;;;;;;;;;;21.30;99.90;;;;;;8362493;28;19928;-75
2022/07/10 18:47:17;;;;;;;;;;;21.20;99.90;;;;;;8369533;28;19962;-75
2022/07/10 18:51:18;;;;;;;;;;;21.10;99.90;;;;;;8370785;28;19924;-75
2022/07/10 18:55:20;;;;;;;;;;;21.10;99.90;;;;;;8367927;28;19927;-75
2022/07/10 18:59:22;;;;;;;;;;;21.00;99.90;;;;;;8365783;28;19921;-76
2022/07/10 19:03:24;;;;;;;;;;;20.90;99.90;;;;;;8374290;28;20256;-75
2022/07/10 19:07:26;;;;;;;;;;;20.90;99.90;;;;;;8372635;28;19920;-75
2022/07/10 19:11:27;;;;;;;;;;;20.70;99.90;;;;;;8368467;28;19920;-75
2022/07/10 19:15:30;;;;;;;;;;;20.70;99.90;;;;;;8369570;28;20291;-75
2022/07/10 19:19:31;;;;;;;;;;;20.70;99.90;;;;;;8367049;28;19978;-75
2022/07/10 19:23:33;;;;;;;;;;;20.60;99.90;;;;;;8368704;28;19920;-76
2022/07/10 19:27:34;;;;;;;;;;;20.60;99.90;;;;;;8369909;28;19932;-75
2022/07/10 19:31:36;;;;;;;;;;;20.50;99.90;;;;;;8369608;28;19928;-75
2022/07/10 19:35:38;;;;;;;;;;;20.40;99.90;;;;;;8371302;28;19927;-75
2022/07/10 19:39:40;;;;;;;;;;;20.30;99.90;;;;;;8366765;28;19921;-76
2022/07/10 19:43:42;;;;;;;;;;;20.30;99.90;;;;;;8369279;28;19928;-76
2022/07/10 19:47:45;;;;;;;;;;;20.20;99.90;;;;;;8364729;28;19929;-76
2022/07/10 19:51:46;;;;;;;;;;;20.10;99.90;;;;;;8365233;28;19932;-75
2022/07/10 19:55:48;;;;;;;;;;;20.10;99.90;;;;;;8363676;28;19928;-75
2022/07/10 19:59:50;;;;;;;;;;;20.10;99.90;;;;;;8362756;28;19921;-75
2022/07/10 20:03:52;;;;;;;;;;;20.10;99.90;;;;;;8349582;28;20411;-75
2022/07/10 20:07:53;;;;;;;;;;;20.10;99.90;;;;;;8364301;28;19924;-75
2022/07/10 20:11:55;;;;;;;;;;;20.10;99.90;;;;;;8360416;28;20355;-75
2022/07/10 20:15:57;;;;;;;;;;;20.10;99.90;;;;;;8342646;28;19951;-75
2022/07/10 20:20:08;;;;;;;;;;;20.10;99.90;;;;;;8369613;28;20020;-75
2022/07/10 20:24:09;;;;;;;;;;;20.10;99.90;;;;;;8364810;28;19929;-76
2022/07/10 20:28:11;;;;;;;;;;;20.10;99.90;;;;;;8370405;28;19920;-75
2022/07/10 20:32:13;;;;;;;;;;;20.10;99.90;;;;;;8367014;28;19929;-75
2022/07/10 20:40:35;;;;;;;;;;;20.10;99.90;;;;;;8369314;28;20398;-76
2022/07/10 20:44:37;;;;;;;;;;;20.00;99.90;;;;;;8374423;28;19927;-75
2022/07/10 20:48:38;;;;;;;;;;;20.00;99.90;;;;;;8356230;28;19929;-76
2022/07/10 20:52:44;;;;;;;;;;;20.00;99.90;;;;;;8366265;28;19931;-75
2022/07/10 20:56:45;;;;;;;;;;;20.00;99.90;;;;;;8366815;28;19925;-75
2022/07/10 21:00:47;;;;;;;;;;;19.90;99.90;;;;;;8363572;28;19927;-75
2022/07/10 21:04:49;;;;;;;;;;;19.90;99.90;;;;;;8377733;28;19941;-76
2022/07/10 21:08:50;;;;;;;;;;;19.80;99.90;;;;;;8368999;28;19924;-75
2022/07/10 21:12:52;;;;;;;;;;;19.80;99.90;;;;;;8393424;28;19924;-75
2022/07/10 21:16:54;;;;;;;;;;;19.70;99.90;;;;;;8380357;28;19927;-75
2022/07/10 21:20:55;;;;;;;;;;;19.70;99.90;;;;;;8385870;28;19955;-75
2022/07/10 21:24:57;;;;;;;;;;;19.60;99.90;;;;;;8366242;28;19995;-75
2022/07/10 21:29:00;;;;;;;;;;;19.60;99.90;;;;;;8387926;28;19920;-76
2022/07/10 21:33:02;;;;;;;;;;;19.50;99.90;;;;;;8379210;28;20361;-75
2022/07/10 21:37:03;;;;;;;;;;;19.50;99.90;;;;;;8374347;28;19921;-76
2022/07/10 21:41:05;;;;;;;;;;;19.50;99.90;;;;;;8386292;28;19920;-76
2022/07/10 21:45:07;;;;;;;;;;;19.40;99.90;;;;;;8376589;28;19935;-76
2022/07/10 21:49:09;;;;;;;;;;;19.30;99.90;;;;;;8372893;28;19920;-76
2022/07/10 21:53:11;;;;;;;;;;;19.20;99.90;;;;;;8381586;28;22433;-76
2022/07/10 21:57:12;;;;;;;;;;;19.20;99.90;;;;;;8371843;28;19936;-75
2022/07/10 22:01:14;;;;;;;;;;;19.10;99.90;;;;;;8377984;28;20283;-76
2022/07/10 22:05:16;;;;;;;;;;;19.00;99.90;;;;;;8374758;28;19928;-75
2022/07/10 22:09:17;;;;;;;;;;;19.00;99.90;;;;;;8402510;28;20003;-75
2022/07/10 22:13:19;;;;;;;;;;;18.90;99.90;;;;;;8369333;28;19925;-76
2022/07/10 22:17:20;;;;;;;;;;;18.80;99.90;;;;;;8372554;28;19927;-75
2022/07/10 22:21:22;;;;;;;;;;;18.80;99.90;;;;;;8369061;28;19921;-75
2022/07/10 22:25:24;;;;;;;;;;;18.70;99.90;;;;;;8377446;28;19921;-75
2022/07/10 22:29:26;;;;;;;;;;;18.70;99.90;;;;;;8375218;28;19931;-75
2022/07/10 22:33:28;;;;;;;;;;;18.70;99.90;;;;;;8372004;28;19928;-75
2022/07/10 22:37:29;;;;;;;;;;;18.60;99.90;;;;;;8368539;28;19925;-75
2022/07/10 22:41:31;;;;;;;;;;;18.60;99.90;;;;;;8375473;28;19927;-75
2022/07/10 22:45:33;;;;;;;;;;;18.60;99.90;;;;;;8376252;28;19927;-75
2022/07/10 22:49:34;;;;;;;;;;;18.50;99.90;;;;;;8379979;28;19928;-75
2022/07/10 22:53:36;;;;;;;;;;;18.50;99.90;;;;;;8375977;28;20368;-75
2022/07/10 22:57:38;;;;;;;;;;;18.50;99.90;;;;;;8349515;28;19963;-76
2022/07/10 23:01:40;;;;;;;;;;;18.50;99.90;;;;;;8375192;28;19974;-76
2022/07/10 23:05:47;;;;;;;;;;;18.40;99.90;;;;;;8376511;28;20383;-76
2022/07/10 23:09:49;;;;;;;;;;;18.50;99.90;;;;;;8369041;28;19925;-76
2022/07/10 23:13:50;;;;;;;;;;;18.50;99.90;;;;;;8378773;28;19928;-76
2022/07/10 23:17:52;;;;;;;;;;;18.50;99.90;;;;;;8380665;28;19927;-76
2022/07/10 23:21:54;;;;;;;;;;;18.50;99.90;;;;;;8367812;28;19939;-76
2022/07/10 23:25:55;;;;;;;;;;;18.50;99.90;;;;;;8372824;28;20287;-76
2022/07/10 23:29:57;;;;;;;;;;;18.40;99.90;;;;;;8383924;28;19921;-76
2022/07/10 23:33:59;;;;;;;;;;;18.40;99.90;;;;;;8377856;28;20294;-76
2022/07/10 23:38:01;;;;;;;;;;;18.40;99.90;;;;;;8375973;28;20331;-76
2022/07/10 23:42:02;;;;;;;;;;;18.40;99.90;;;;;;8366437;28;19920;-76
2022/07/10 23:46:04;;;;;;;;;;;18.30;99.90;;;;;;8382823;28;19996;-75